Terminal Aerodrome Forecast
Issued by NWS Huntsville, AL

Home | Current Version | Previous Version | Text Only | Print | Product List | Glossary On
Versions: 1 2 3 4 5 6 7 8 9 10 11 12 13 14 15 16 17 18 19 20 21 22 23 24 25 26 27 28 29 30 31 32 33 34
000
FTUS44 KHUN 210520
TAFHSV
TAF
KHSV 210520Z 2106/2206 14005KT 6SM BR SCT150 BKN250
     FM211200 14003KT P6SM BKN050 BKN150
     FM211400 17008KT 6SM -SHRA BKN050 BKN100
      TEMPO 2115/2118 5SM -TSRA BKN050CB
     FM211800 15012KT P6SM BKN050
     FM220400 16007KT 6SM -SHRA OVC025 PROB30 2204/2206 4SM -TSRA
      OVC025CB=

USA.gov is the U.S. government's official web portal to all federal, state and local government web resources and services.